Utica, Illinois
Current Conditions -  °F | °C
As of 11:35 AM on Thursday 23 Oct 2014 (Local Time) from KVYS Reporting Station
Clear Clear  
Wind Chill: 55°   Ceiling: Unl
Heat Index: 55°   Visibility: 10mi
Dew Point: 42°   Wind: 16mph
Humidity: 60%   Direction: 190°S
Pressure: 30.19"   Gusts: NA
Location:  41.34°N, 89.01°W
Report Text: KVYS 231635Z AUTO 19014KT 10SM CLR 13/06 A3019 RMK AO2 T01300055
Loading
Personal Weather Stations






























Interactive Weather Map
Tropical Storm Tracking
New forecast layout! Learn more

10-Day Weather Forecast

Advertisements
Track Severe Weather on mobile